Strum, Wisconsin
Current Conditions -  °F | °C
As of 11:56 AM on Thursday 30 Oct 2014 (Local Time) from KEAU Reporting Station
Overcast Overcast  
Wind Chill: 44°   Ceiling: 6000
Heat Index: 46°   Visibility: 10mi
Dew Point: 35°   Wind: 5mph
Humidity: 66%   Direction: 310°NW
Pressure: 30.08"   Gusts: NA
Location:  44.55°N, 91.39°W
Report Text: KEAU 301656Z 31004KT 10SM OVC060 08/02 A3008 RMK AO2 SLP194 T00780017
Loading
Personal Weather Stations






























Interactive Weather Map
Tropical Storm Tracking
New forecast layout! Learn more

10-Day Weather Forecast

Advertisements
Track Severe Weather on mobile